Tiempo atmosférico en la estación meteorológica de Lagunas De Somoza, León (1020 m.)



Fecha
DESCASC
Temp. máxima en grados centígrados (hora)
DESCASC
Temp. mínima en grados centígrados (hora)
DESCASC
Temp. media en grados centígrados
DESCASC
Racha de viento máxima en m/sg (hora)
DESCASC
Velocidad máxima media en intervalos de 10 minutos(hora)
DESCASC
Precipitaciones diarias en mm
DESCASC
Precipitaciones de 00:00 a 06:00 en mm
DESCASC
Precipitaciones de 06:00 a 12:00 en mm
DESCASC
Precipitaciones de 12:00 a 18:00 en mm
DESCASC
Precipitaciones de 18:00 a 24:00 en mm
DESCASC
16-06-2019 25.6 (19:10) 4.9 (06:10) 15.3 8.06 (15:40) 3.89 (13:30) 0 0 0 0 0
15-06-2019 22.2 (17:40) 5.3 (06:40) 13.8 7.78 (20:20) 4.72 (20:30) 0 0 0 0 0
14-06-2019 19.4 (17:20) 2.3 (05:00) 10.8 19.17 (19:40) 6.67 (19:20) 0 0 0 0 0
13-06-2019 20.1 (17:30) 2.6 (00:00) 11.4 10.28 (18:00) 6.11 (18:00) 0 0 0 0 0
12-06-2019 18.9 (17:10) 2.8 (00:00) 10.8 9.44 (09:20) 5.83 (04:30) 0 0 0 0 0
11-06-2019 15.3 (15:20) 5.2 (00:00) 10.3 11.11 (16:20) 7.22 (19:00) 0 0 0 0 0
10-06-2019 18.3 (15:00) 2 (00:00) 10.1 19.72 (22:00) 7.78 (19:00) 0 0 0 0 0
09-06-2019 18.7 (17:20) 6.1 (00:00) 12.4 20 (19:40) 8.61 (20:00) 0 0 0 0 0
08-06-2019 19.8 (18:30) 1.6 (00:00) 10.7 8.89 (16:00) 4.17 (21:40) 0 0 0 0 0
07-06-2019 14.5 (15:30) 4.2 (00:00) 9.3 18.33 (19:30) 10.56 (10:10) 0.1 0 0.1 0 0
06-06-2019 15.7 (16:30) 0.3 (00:00) 8 19.72 (17:00) 9.17 (17:00) 7.3 0 0 0.5 6.8
05-06-2019 13.9 (16:00) 6 (00:00) 9.9 20 (03:10) 8.33 (09:30) 0 0 0 0 0
04-06-2019 19.3 (14:10) 7 (00:00) 13.1 19.72 (17:00) 8.89 (17:10) 0.4 0 0 0.4 0
03-06-2019 26.5 (15:20) 12.7 (00:00) 19.6 10.28 (15:20) 4.72 (15:20) 0 0 0 0 0
02-06-2019 28.7 (15:00) 10.2 (00:00) 19.5 9.17 (15:20) 5.28 (17:40) 0 0 0 0 0
01-06-2019 30.4 (16:40) 11 (00:00) 20.7 9.17 (20:50) 6.67 (21:00) 0 0 0 0 0
31-05-2019 30.3 (19:10) 9.8 (00:00) 20 7.22 (16:00) 3.33 (18:20) 0 0 0 0 0
30-05-2019 29 (19:50) 5.2 (00:00) 17.1 13.33 (15:20) 3.61 (16:10) 0 0 0 0 0
29-05-2019 25.3 (19:40) 3.1 (00:00) 14.2 7.22 (16:10) 3.33 (16:30) 0 0 0 0 0
28-05-2019 21.5 (18:00) 2.2 (00:00) 11.9 9.17 (15:40) 5.28 (20:20) 0 0 0 0 0
27-05-2019 23.2 (17:20) 9.4 (00:00) 16.3 11.39 (20:50) 6.39 (10:10) 0 0 0 0 0
26-05-2019 26 (16:40) 3.1 (00:00) 14.5 10.28 (21:40) 6.39 (21:40) 0 0 0 0 0
25-05-2019 23.2 (17:10) 3.1 (00:00) 13.2 8.06 (17:20) 4.44 (18:10) 0 0 0 0 0
24-05-2019 20.7 (18:00) 6.2 (00:00) 13.5 10.83 (19:40) 6.11 (19:50) 0 0 0 0 0
23-05-2019 21.6 (15:20) 9.2 (00:00) 15.4 19.72 (19:00) 8.33 (19:10) 0 0 0 0 0
22-05-2019 23.6 (17:10) 4.8 (00:00) 14.2 7.78 (23:10) 5 (23:30) 0 0 0 0 0
21-05-2019 21.5 (18:00) 5.5 (06:30) 13.5 7.22 (15:10) 3.61 (23:50) 0 0 0 0 0

Gráficas

Temp. máximas Temp. mínimas Temp. medias Precipitaciones Rachas de viento máximas Velocidades máximas media en intervalos de 10 minutos

Datos horarios

Fecha y hora oficial Temperatura (ºC) Velocidad del viento (km/h) Dirección del viento Racha (km/h) Dirección de racha Precipitación (mm) Presión (hPa) Tendencia (hPa) Humedad (%)
2019-06-19 23:00:00 13 5 Este 19 Este 0 900.9 0.6 73
2019-06-19 22:00:00 14.5 15 Este 27 Este 0 900.7 0.6 66
2019-06-19 21:00:00 16.9 15 Sudeste 32 Sudeste 0 900.6 0.6 55
2019-06-19 20:00:00 18.9 19 Sudeste 31 Sudeste 0 900.3 0.4 49
2019-06-19 19:00:00 18.4 17 Sudeste 26 Este 0 900.1 0.1 48
2019-06-19 18:00:00 19.2 15 Este 26 Este 0 900 -0.1 45
2019-06-19 17:00:00 20.1 6 Este 17 Este 0 899.9 -0.2 44
2019-06-19 16:00:00 19.5 4 Sudeste 15 Sudeste 0 900 0 46
2019-06-19 15:00:00 19.4 7 Sudeste 17 Sudeste 0 900.1 0.1 49
2019-06-19 14:00:00 18.9 10 Noroeste 16 Noroeste 0 900.1 0.2 50
2019-06-19 13:00:00 18.2 0 Calma 14 Norte 0 900 0.2 52
2019-06-19 12:00:00 17.3 7 Noroeste 13 Noroeste 0 900 0.5 61
2019-06-19 11:00:00 15.1 4 Sudoeste 12 Sudoeste 0 899.9 0.9 78
2019-06-19 10:00:00 14.1 7 Sudoeste 13 Sudoeste 0 899.8 0.9 89
2019-06-19 09:00:00 13.6 8 Sudoeste 13 Sudoeste 0 899.5 0.8 95
2019-06-19 08:00:00 12.9 7 Sudoeste 13 Sudoeste 0.1 899 0.2 97
2019-06-19 07:00:00 12.7 5 Sudoeste 9 Sudoeste 0 898.9 0.3 97
2019-06-19 06:00:00 12.7 4 Sur 21 Sur 0 898.7 0.2 97
2019-06-19 05:00:00 12.8 6 Sur 14 Sur 0 898.8 0.1 97
2019-06-19 04:00:00 12.9 3 Sur 10 Sudeste 0 898.6 -0.2 97
2019-06-19 03:00:00 13.1 0 Calma 9 Oeste 0.1 898.5 -0.5 96
2019-06-19 02:00:00 13.3 4 Oeste 14 Noroeste 0.1 898.7 0 95
2019-06-19 01:00:00 13.5 4 Noroeste 18 Sur 0 898.8 0.5 96
2019-06-19 00:00:00 13.5 6 Noroeste 17 Noroeste 0.8 899 0.6 97
2019-06-18 23:00:00 13.8 8 Norte 26 Norte 0.6 898.7 0.1 94
2019-06-18 22:00:00 13.9 11 Noroeste 24 Norte 0.3 898.3 0 95
2019-06-18 21:00:00 14.4 15 Norte 30 Norte 0.1 898.4 0.3 90
2019-06-18 20:00:00 15.2 12 Norte 21 Norte 0.1 898.6 0.7 85
2019-06-18 19:00:00 15.6 14 Norte 28 Noroeste 0 898.3 -0.3 79
2019-06-18 18:00:00 15.9 15 Noroeste 26 Norte 0.1 898.1 -0.5 76
2019-06-18 17:00:00 17.5 18 Norte 34 Norte 0 897.9 -0.5 61
2019-06-18 16:00:00 17.1 14 Norte 36 Norte 0 898.6 0.4 64
2019-06-18 15:00:00 15.4 10 Norte 36 Norte 0 898.6 1.1 78
2019-06-18 14:00:00 17.1 17 Noroeste 37 Norte 0 898.4 0.6 57
2019-06-18 13:00:00 18.7 20 Noroeste 35 Noroeste 0 898.2 0.5 45
2019-06-18 12:00:00 20.6 22 Noroeste 36 Norte 0 897.5 -0.2 45
2019-06-18 11:00:00 19 20 Norte 66 Noroeste 0 897.8 0.1 47
2019-06-18 10:00:00 18.3 10 Noroeste 21 Noroeste 0 897.7 -0.2 48
2019-06-18 09:00:00 16.7 9 Noroeste 16 Noroeste 0 897.7 -0.1 48
2019-06-18 08:00:00 13.4 5 Oeste 10 Sudoeste 0 897.7 -0.2 58
2019-06-18 07:00:00 9 0 Calma 7 Oeste 0 897.9 -0.2 66
2019-06-18 06:00:00 8 0 Calma 6 Sudoeste 0 897.8 -0.8 64
2019-06-18 05:00:00 11.8 5 Sudoeste 10 Sur 0 897.9 -1.5 57
2019-06-18 04:00:00 9.7 5 Sudeste 7 Sudeste 0 898.1 -1.8 61
2019-06-18 03:00:00 10.4 2 Sudeste 7 Este 0 898.6 -2 57
2019-06-18 02:00:00 13.6 0 Calma 6 Sudeste 0 899.4 -1.5 48
2019-06-18 01:00:00 15.9 2 Sudeste 12 Nordeste 0 899.9 -0.4 42
2019-06-18 00:00:00 17.5 8 Norte 24 Norte 0 900.6 0.3 36
2019-06-17 23:00:00 18.3 10 Norte 40 Nordeste 0 900.9 0.9 32
2019-06-17 22:00:00 19.4 8 Nordeste 34 Nordeste 0 900.3 -0.1 28
2019-06-17 21:00:00 20 19 Nordeste 35 Nordeste 0 900.3 -0.1 26
2019-06-17 20:00:00 21.2 17 Noroeste 31 Nordeste 0 900 -0.8 25
2019-06-17 19:00:00 21.4 10 Norte 24 Norte 0 900.4 -0.5 25
2019-06-17 18:00:00 22.2 3 Nordeste 21 Nordeste 0 900.4 -0.5 21
2019-06-17 17:00:00 22.2 11 Norte 29 Norte 0 900.8 0 21
2019-06-17 16:00:00 23.1 18 Norte 30 Norte 0 900.9 -0.3 20
2019-06-17 15:00:00 24.5 17 Norte 37 Norte 0 900.9 -0.4 21
2019-06-17 14:00:00 23.9 17 Norte 43 Noroeste 0 900.8 -1 21
2019-06-17 13:00:00 22.9 19 Norte 39 Norte 0 901.2 -0.8 27
2019-06-17 12:00:00 21.9 19 Noroeste 34 Noroeste 0 901.3 -0.9 32
2019-06-17 11:00:00 20 14 Oeste 23 Oeste 0 901.8 -0.4 50
2019-06-17 10:00:00 18 10 Oeste 17 Oeste 0 902 -0.1 58
2019-06-17 09:00:00 16.4 4 Sudoeste 10 Sudoeste 0 902.2 0 69
2019-06-17 08:00:00 11.7 0 Calma 7 Sur 0 902.2 -0.2 88
2019-06-17 07:00:00 7.5 2 Sudeste 6 Este 0 902.1 -0.2 91
2019-06-17 06:00:00 7.7 4 Este 12 Este 0 902.2 -0.1 83
2019-06-17 05:00:00 8.3 3 Este 8 Este 0 902.4 0 79
2019-06-17 04:00:00 10.6 4 Oeste 12 Oeste 0 902.3 -0.3 70
2019-06-17 03:00:00 11.6 5 Este 11 Este 0 902.3 -0.5 65
2019-06-17 02:00:00 12.7 6 Nordeste 11 Este 0 902.4 -0.2 65
2019-06-17 01:00:00 13.8 4 Este 15 Este 0 902.6 0.6 64
2019-06-17 00:00:00 14.7 6 Este 10 Este 0 902.8 1.2 59
2019-06-16 23:00:00 16.7 6 Este 9 Este 0 902.6 1 51
2019-06-16 22:00:00 20 5 Este 16 Norte 0 902 0.4 39
2019-06-16 21:00:00 23 10 Norte 26 Noroeste 0 901.6 -0.4 27
2019-06-16 20:00:00 24.4 8 Norte 22 Noroeste 0 901.6 -0.7 24
2019-06-16 19:00:00 25.2 11 Noroeste 21 Noroeste 0 901.6 -1.1 24
2019-06-16 18:00:00 25.3 10 Noroeste 23 Noroeste 0 902 -1.3 26
2019-06-16 17:00:00 24.2 8 Norte 27 Oeste 0 902.3 -1.5 27
2019-06-16 16:00:00 24 12 Noroeste 29 Noroeste 0 902.7 -1.4 28
2019-06-16 15:00:00 23.4 10 Noroeste 27 Oeste 0 903.3 -1.2 29
2019-06-16 14:00:00 21.6 14 Oeste 29 Noroeste 0 903.8 -1 34
2019-06-16 13:00:00 20 12 Noroeste 24 Noroeste 0 904.1 -0.7 37
2019-06-16 12:00:00 18.7 9 Oeste 17 Oeste 0 904.5 -0.3 42
2019-06-16 11:00:00 16.7 6 Oeste 13 Oeste 0 904.8 0.4 52
2019-06-16 10:00:00 14.5 3 Sur 10 Oeste 0 904.8 0.4 62
2019-06-16 09:00:00 12.5 3 Sudoeste 12 Oeste 0 904.8 0.4 76
2019-06-16 08:00:00 8.2 0 Calma 9 Este 0 904.4 -0.2 97
2019-06-16 07:00:00 5.1 7 Este 10 Este 0 904.4 -0.4 97
2019-06-16 06:00:00 5 6 Este 13 Este 0 904.4 -0.1 95
2019-06-16 05:00:00 5.3 5 Este 11 Este 0 904.6 0 93
2019-06-16 04:00:00 5.8 0 Calma 11 Oeste 0 904.8 0 88
2019-06-16 03:00:00 6.5 0 Calma 5 Este 0 904.5 -0.1 84
2019-06-16 02:00:00 8.1 4 Este 6 Este 0 904.6 0.3 82
2019-06-16 01:00:00 9.1 2 Nordeste 12 Este 0 904.8 1.2 74
2019-06-16 00:00:00 10.9 5 Este 12 Este 0 904.6 0.9 68
2019-06-15 23:00:00 12.9 0 Calma 19 Este 0 904.3 0.7 59
2019-06-15 22:00:00 14.9 12 Este 28 Sudeste 0 903.6 0.3 53
2019-06-15 21:00:00 17.4 15 Este 28 Este 0 903.7 0.2 45
2019-06-15 20:00:00 19.6 14 Sudeste 28 Este 0 903.6 -0.1 41
2019-06-15 19:00:00 20.5 10 Sudeste 27 Sudeste 0 903.3 -0.6 39
2019-06-15 18:00:00 19.6 12 Este 24 Sudeste 0 903.5 -0.7 37
2019-06-15 17:00:00 20.7 4 Oeste 24 Noroeste 0 903.7 -0.7 34
2019-06-15 16:00:00 20.7 3 Noroeste 21 Noroeste 0 903.9 -0.5 36
2019-06-15 15:00:00 19.4 9 Noroeste 26 Noroeste 0 904.2 -0.3 38
2019-06-15 14:00:00 18.1 9 Noroeste 21 Oeste 0 904.4 0 40
2019-06-15 13:00:00 16.4 7 Oeste 19 Noroeste 0 904.4 0.2 44
2019-06-15 12:00:00 14.5 4 Oeste 18 Oeste 0 904.5 0.7 48
2019-06-15 11:00:00 14 7 Oeste 17 Noroeste 0 904.4 1.1 52
2019-06-15 10:00:00 11.9 7 Nordeste 19 Este 0 904.2 1.4 57
2019-06-15 09:00:00 10.5 12 Este 20 Este 0 903.8 1.2 69
2019-06-15 08:00:00 7.6 0 Calma 10 Sudeste 0 903.3 1.1 84
2019-06-15 07:00:00 5.5 4 Sur 10 Sudeste 0 902.8 0.5 88
2019-06-15 06:00:00 6 7 Sudeste 12 Sudeste 0 902.6 0.5 88
2019-06-15 05:00:00 6.4 3 Este 14 Este 0 902.2 0.4 86
2019-06-15 04:00:00 6.7 8 Este 25 Este 0 902.3 0.9 85
2019-06-15 03:00:00 8 8 Este 21 Este 0 902.1 1.2 86
2019-06-15 02:00:00 8.4 9 Este 24 Este 0 901.8 1.6 79
2019-06-15 01:00:00 9.3 15 Este 25 Este 0 901.4 1.7 73
2019-06-15 00:00:00 9.9 16 Este 31 Este 0 900.9 2.1 69
2019-06-14 23:00:00 10.7 19 Nordeste 32 Este 0 900.2 2.1 66
2019-06-14 22:00:00 11.4 20 Este 38 Este 0 899.7 2.5 60
2019-06-14 21:00:00 14.7 20 Este 41 Este 0 898.8 1.6 48
2019-06-14 20:00:00 15.8 24 Este 69 Este 0 898.1 1.1 44
2019-06-14 19:00:00 17.8 21 Este 39 Este 0 897.2 0.3 39
2019-06-14 18:00:00 18.7 17 Nordeste 30 Este 0 897.2 0.3 40
2019-06-14 17:00:00 18.9 13 Este 31 Este 0 897 0 42
2019-06-14 16:00:00 17 12 Sudeste 32 Sudeste 0 896.9 0 45
2019-06-14 15:00:00 18.6 4 Sur 23 Oeste 0 896.9 -0.1 42
2019-06-14 14:00:00 18.2 8 Noroeste 23 Oeste 0 897 0.1 39
2019-06-14 13:00:00 17.1 10 Noroeste 24 Noroeste 0 896.9 -0.2 42
2019-06-14 12:00:00 16.5 0 Calma 20 Noroeste 0 897 0 47
2019-06-14 11:00:00 15 5 Oeste 13 Oeste 0 896.9 0 51
2019-06-14 10:00:00 12.9 2 Sudoeste 9 Oeste 0 897.1 -0.1 64
2019-06-14 09:00:00 10.8 0 Calma 5 Sur 0 897 -0.3 74
2019-06-14 08:00:00 6.7 0 Calma 10 Este 0 896.9 -0.1 91
2019-06-14 07:00:00 3.5 9 Este 13 Este 0 897.2 0.4 94
2019-06-14 06:00:00 3.3 10 Este 13 Este 0 897.3 0.7 94
2019-06-14 05:00:00 2.5 6 Este 10 Oeste 0 897 0.3 89
2019-06-14 04:00:00 5.2 10 Oeste 16 Oeste 0 896.8 -0.2 83
2019-06-14 03:00:00 5 0 Calma 9 Este 0 896.6 -0.5 77
2019-06-14 02:00:00 7.1 0 Calma 7 Noroeste 0 896.7 0.1 69
2019-06-14 01:00:00 8.9 0 Calma 22 Este 0 897 0.7 63
2019-06-14 00:00:00 10.1 14 Este 31 Este 0 897.1 1.3 60
2019-06-13 23:00:00 10.6 12 Este 26 Este 0 896.6 1.4 56
2019-06-13 22:00:00 11.9 14 Este 28 Este 0 896.3 1.4 50
2019-06-13 21:00:00 15.6 14 Este 28 Este 0 895.8 1.2 42
2019-06-13 20:00:00 17.3 18 Este 31 Este 0 895.2 0.6 39
2019-06-13 19:00:00 18.2 16 Este 32 Sudeste 0 894.9 0.2 39
2019-06-13 18:00:00 18.1 22 Sudeste 37 Este 0 894.6 -0.2 38
2019-06-13 17:00:00 19.6 12 Norte 30 Norte 0 894.6 -0.4 28
2019-06-13 16:00:00 19 11 Norte 30 Noroeste 0 894.7 -0.4 30
2019-06-13 15:00:00 18.4 14 Norte 34 Norte 0 894.8 -0.5 34
2019-06-13 14:00:00 17.4 17 Noroeste 31 Noroeste 0 895 -0.3 39
2019-06-13 13:00:00 16.7 15 Noroeste 30 Noroeste 0 895.1 -0.4 44
2019-06-13 12:00:00 14 14 Oeste 29 Oeste 0 895.3 -0.2 53
2019-06-13 11:00:00 13.9 9 Noroeste 22 Noroeste 0 895.3 -0.1 54
2019-06-13 10:00:00 12.4 6 Oeste 14 Oeste 0 895.5 0.1 61
2019-06-13 09:00:00 9.8 6 Nordeste 10 Nordeste 0 895.5 0 70
2019-06-13 08:00:00 7.1 8 Nordeste 14 Este 0 895.4 -0.4 84
2019-06-13 07:00:00 3.5 8 Este 13 Este 0 895.4 -0.5 92
2019-06-13 06:00:00 3.1 6 Este 14 Este 0 895.5 -0.3 92
2019-06-13 05:00:00 3.4 8 Este 14 Este 0 895.8 -0.3 91
2019-06-13 04:00:00 2.8 5 Este 23 Oeste 0 895.9 -0.2 86
2019-06-13 03:00:00 4.9 2 Sudoeste 22 Oeste 0 895.8 -0.6 79
2019-06-13 02:00:00 6.1 0 Calma 10 Nordeste 0 896.1 -0.4 76
2019-06-13 01:00:00 6.3 4 Nordeste 9 Nordeste 0 896.1 -0.3 73
2019-06-13 00:00:00 8 0 Calma 14 Este 0 896.4 0.2 64
2019-06-12 23:00:00 9.5 12 Este 18 Este 0 896.5 0.5 57
2019-06-12 22:00:00 11.7 13 Este 28 Este 0 896.4 0 49
2019-06-12 21:00:00 13.9 16 Este 28 Este 0 896.2 -0.5 43
2019-06-12 20:00:00 15 14 Este 27 Este 0 896 -0.8 41
2019-06-12 19:00:00 15.8 15 Sudeste 24 Sudeste 0 896.4 -0.7 39
2019-06-12 18:00:00 17 10 Sudeste 23 Noroeste 0 896.7 -0.8 36
2019-06-12 17:00:00 18.7 4 Norte 24 Noroeste 0 896.8 -1.4 32
2019-06-12 16:00:00 17.2 10 Noroeste 27 Noroeste 0 897.1 -1.6 33
2019-06-12 15:00:00 15.8 9 Noroeste 19 Norte 0 897.5 -1.4 35
2019-06-12 14:00:00 15 10 Noroeste 21 Norte 0 898.2 -1 36
2019-06-12 13:00:00 14.2 0 Calma 18 Nordeste 0 898.7 -0.8 35
2019-06-12 12:00:00 12.4 3 Noroeste 16 Nordeste 0 898.9 -0.7 43
2019-06-12 11:00:00 11 4 Sudeste 22 Nordeste 0 899.2 -0.3 54
2019-06-12 10:00:00 9.2 14 Sudeste 34 Este 0 899.5 0 59
2019-06-12 09:00:00 7.7 13 Este 23 Este 0 899.6 0.1 65
2019-06-12 08:00:00 5.8 13 Este 19 Este 0 899.5 -0.3 72
2019-06-12 07:00:00 3.4 4 Nordeste 21 Este 0 899.5 -0.6 78
2019-06-12 06:00:00 4.1 12 Este 22 Este 0 899.5 -1 80
2019-06-12 05:00:00 4 14 Este 27 Este 0 899.8 -1 80
2019-06-12 04:00:00 4.7 16 Este 23 Este 0 900.1 -1 78
2019-06-12 03:00:00 4.6 17 Este 22 Este 0 900.5 -1.1 79
2019-06-12 02:00:00 5.5 12 Este 23 Este 0 900.8 -0.9 76
2019-06-12 01:00:00 4.9 7 Este 15 Este 0 901.1 -0.3 74
2019-06-12 00:00:00 6.3 9 Este 18 Este 0 901.6 0.1 66
2019-06-11 23:00:00 7.5 9 Este 17 Este 0 901.7 0.2 60
2019-06-11 22:00:00 8.6 13 Este 32 Sudeste 0 901.4 0.1 56
2019-06-11 21:00:00 11.2 20 Sudeste 33 Este 0 901.5 0.1 48
2019-06-11 20:00:00 11.7 21 Sudeste 38 Sudeste 0 901.5 0.2 45
2019-06-11 19:00:00 13.4 26 Sudeste 40 Este 0 901.3 0.1 42
2019-06-11 18:00:00 13.9 23 Sudeste 40 Este 0 901.4 0.1 42
2019-06-11 17:00:00 14.2 19 Este 40 Sudeste 0 901.3 -0.2 39
2019-06-11 16:00:00 14.4 22 Este 38 Sudeste 0 901.2 0.2 42
2019-06-11 15:00:00 13.9 19 Este 39 Este 0 901.3 0.2 42
2019-06-11 14:00:00 13.6 19 Este 36 Sudeste 0 901.5 0.6 44
2019-06-11 13:00:00 12.5 17 Este 34 Este 0 901 0.2 47
2019-06-11 12:00:00 11.5 16 Sudeste 31 Sudeste 0 901.1 0.8 48
2019-06-11 11:00:00 9.4 12 Sudeste 32 Este 0 900.9 0.7 54
2019-06-11 10:00:00 9.3 17 Sudeste 36 Este 0 900.8 1.1 59
2019-06-11 09:00:00 8.2 21 Este 33 Este 0 900.3 1 69
2019-06-11 08:00:00 7.1 18 Este 34 Este 0 900.2 0.7 76
2019-06-11 07:00:00 5.8 11 Este 24 Este 0 899.7 0.1 78
2019-06-11 06:00:00 6.2 15 Este 30 Este 0 899.3 -0.6 76
2019-06-11 05:00:00 6.3 19 Este 28 Nordeste 0 899.5 -0.8 76
2019-06-11 04:00:00 6.9 21 Este 33 Este 0 899.6 -1.2 79
2019-06-11 03:00:00 7 23 Este 36 Este 0 899.9 -1.2 80
2019-06-11 02:00:00 8 23 Este 37 Este 0 900.3 -0.6 78
2019-06-11 01:00:00 8.8 18 Este 34 Este 0 900.8 0.8 76
2019-06-11 00:00:00 9.9 21 Este 37 Este 0 901.1 0.5 73
2019-06-10 23:00:00 10.5 23 Este 68 Este 0 900.9 0.4 61
2019-06-10 22:00:00 11.5 23 Este 71 Este 0 900 -0.2 54
2019-06-10 21:00:00 13.5 23 Este 42 Este 0 900.6 0.1 47
2019-06-10 20:00:00 14.1 20 Este 39 Este 0 900.5 -0.4 45
2019-06-10 19:00:00 16.5 28 Este 70 Este 0 900.2 -1.1 42
2019-06-10 18:00:00 16.7 17 Este 69 Este 0 900.5 -1.4 42
2019-06-10 17:00:00 15.8 23 Este 39 Sudeste 0 900.9 -1.3 39
2019-06-10 16:00:00 16.9 23 Sudeste 39 Sudeste 0 901.3 -1.5 35
2019-06-10 15:00:00 17.5 20 Sudeste 37 Sudeste 0 901.9 -1.1 31
2019-06-10 14:00:00 16.9 11 Sudeste 28 Nordeste 0 902.2 -1.3 35
2019-06-10 13:00:00 15.1 13 Sudeste 30 Sudeste 0 902.8 -0.6 40
2019-06-10 12:00:00 14.1 9 Sudeste 22 Sudeste 0 903 -0.4 41
2019-06-10 11:00:00 13.2 9 Sudeste 21 Sudeste 0 903.5 -0.1 46
2019-06-10 10:00:00 11.9 7 Sudeste 18 Sudeste 0 903.4 0.1 54
2019-06-10 09:00:00 10.5 9 Nordeste 20 Nordeste 0 903.4 0.1 66
2019-06-10 08:00:00 7.7 10 Este 15 Nordeste 0 903.6 0.1 81
2019-06-10 07:00:00 3 7 Este 13 Este 0 903.3 -0.6 94
2019-06-10 06:00:00 3 5 Este 7 Este 0 903.3 -0.9 95
2019-06-10 05:00:00 2.7 3 Sudeste 6 Este 0 903.5 -1.1 94
2019-06-10 04:00:00 3.9 0 Calma 5 Sur 0 903.9 -0.8 91
2019-06-10 03:00:00 5.8 0 Calma 21 Sur 0 904.2 0.1 87
2019-06-10 02:00:00 7.4 9 Sudeste 19 Sudeste 0 904.6 1 84
2019-06-10 01:00:00 8.1 7 Sudeste 25 Sudeste 0 904.7 1.8 78
2019-06-10 00:00:00 9.3 4 Sur 29 Este 0 904.1 1.5 74
2019-06-09 23:00:00 10.3 22 Este 35 Este 0 903.6 1.5 70
2019-06-09 22:00:00 11.4 23 Este 35 Este 0 902.9 1 63
2019-06-09 21:00:00 13.7 23 Este 72 Este 0 902.6 1.1 52
2019-06-09 20:00:00 15 31 Este 72 Este 0 902.1 0.7 46
2019-06-09 19:00:00 17.1 27 Este 71 Este 0 901.9 0.4 42
2019-06-09 18:00:00 17.9 22 Este 37 Norte 0 901.5 -0.1 40
2019-06-09 17:00:00 18 20 Este 35 Este 0 901.4 -0.4 40
2019-06-09 16:00:00 17.2 18 Este 36 Sudeste 0 901.5 -0.5 39
2019-06-09 15:00:00 16.3 17 Sudeste 33 Sudeste 0 901.6 -0.5 43
2019-06-09 14:00:00 16.9 17 Sudeste 33 Sudeste 0 901.8 -0.3 45
2019-06-09 13:00:00 16.5 8 Sudeste 18 Sudeste 0 902 -0.3 47
2019-06-09 12:00:00 17.1 4 Noroeste 15 Oeste 0 902.1 -0.3 47
2019-06-09 11:00:00 14.5 3 Oeste 11 Oeste 0 902.1 0.2 57
2019-06-09 10:00:00 12.8 4 Oeste 10 Sudoeste 0 902.3 0.7 70
2019-06-09 09:00:00 9.9 2 Sudoeste 8 Oeste 0 902.4 0.8 85
2019-06-09 08:00:00 8 0 Calma 4 Nordeste 0 901.9 -0.1 91
2019-06-09 07:00:00 6.2 0 Calma 6 Este 0 901.6 -0.6 91
2019-06-09 06:00:00 7.2 2 Este 10 Este 0 901.6 -1 90
2019-06-09 05:00:00 7.2 7 Este 10 Este 0 902 -0.5 90
2019-06-09 04:00:00 7.6 2 Este 12 Sudeste 0 902.2 -0.7 83
2019-06-09 03:00:00 9.4 9 Sudeste 17 Oeste 0 902.6 -0.7 78
2019-06-09 02:00:00 11.4 4 Nordeste 13 Este 0 902.5 -0.5 68
2019-06-09 01:00:00 12.5 9 Sudeste 25 Sudeste 0 902.9 0.5 67
2019-06-09 00:00:00 12.5 9 Este 21 Sudeste 0 903.3 0.9 68
2019-06-08 23:00:00 12.9 10 Sudeste 20 Sudeste 0 903 0.5 60
2019-06-08 22:00:00 14.1 11 Sudeste 24 Este 0 902.4 -0.1 54
2019-06-08 21:00:00 15.2 9 Sudeste 23 Sudeste 0 902.4 -0.6 51
2019-06-08 20:00:00 18.6 6 Nordeste 15 Norte 0 902.5 -1 32
2019-06-08 19:00:00 18.9 6 Noroeste 21 Noroeste 0 902.5 -1.4 31
2019-06-08 18:00:00 18.9 7 Norte 22 Noroeste 0 903 -1.4 32
2019-06-08 17:00:00 19.3 5 Noroeste 22 Noroeste 0 903.5 -1.4 32
2019-06-08 16:00:00 18.3 11 Noroeste 32 Noroeste 0 903.9 -1.6 35
2019-06-08 15:00:00 17.2 6 Oeste 24 Oeste 0 904.4 -1.4 39
2019-06-08 14:00:00 15.7 5 Noroeste 25 Noroeste 0 904.9 -1.3 43
2019-06-08 13:00:00 15.1 5 Noroeste 20 Sudoeste 0 905.5 -1.1 45
2019-06-08 12:00:00 13.1 4 Oeste 15 Oeste 0 905.8 -0.7 55
2019-06-08 11:00:00 10.2 2 Sur 14 Oeste 0 906.2 -0.2 69
2019-06-08 10:00:00 8.5 4 Sudoeste 12 Sudoeste 0 906.6 0.4 76
2019-06-08 09:00:00 6.5 0 Calma 10 Sudoeste 0 906.5 0.4 88
2019-06-08 08:00:00 3.7 0 Calma 4 Este 0 906.4 0.4 96
2019-06-08 07:00:00 1.6 0 Calma 8 Sur 0 906.2 0.5 96
2019-06-08 06:00:00 1.7 4 Este 6 Este 0 906.1 0 94
2019-06-08 05:00:00 3.3 0 Calma 14 Este 0 906 -0.2 91
2019-06-08 04:00:00 4.2 8 Este 13 Este 0 905.7 -0.5 88
2019-06-08 03:00:00 5.4 7 Nordeste 10 Nordeste 0 906.1 -0.1 83
2019-06-08 02:00:00 6.2 5 Sudeste 22 Este 0 906.2 0.5 81
2019-06-08 01:00:00 6.7 13 Este 20 Este 0 906.2 1.1 77
2019-06-08 00:00:00 6.7 12 Este 23 Este 0 906.2 1.7 78
2019-06-07 23:00:00 7.5 12 Este 22 Este 0 905.7 1.2 67
2019-06-07 22:00:00 8.4 12 Este 31 Este 0 905.1 0.9 55
2019-06-07 21:00:00 10.8 21 Este 36 Este 0 904.5 1.1 43
2019-06-07 20:00:00 11 27 Este 66 Este 0 904.5 1.4 47
2019-06-07 19:00:00 12.2 26 Este 39 Este 0 904.2 1.8 46
2019-06-07 18:00:00 13 24 Este 40 Este 0 903.4 1.7 46
2019-06-07 17:00:00 12 25 Este 42 Este 0 903.1 1.6 52
2019-06-07 16:00:00 13.5 19 Este 35 Nordeste 0 902.4 1.4 38
2019-06-07 15:00:00 13.3 19 Este 47 Este 0 901.7 1.6 38
2019-06-07 14:00:00 12.4 15 Este 42 Este 0 901.5 2.2 45
2019-06-07 13:00:00 11.2 21 Sudeste 44 Este 0 901 2.7 48
2019-06-07 12:00:00 9.7 27 Sudeste 45 Sudeste 0 900.1 3 51
2019-06-07 11:00:00 8.3 28 Sudeste 52 Sudeste 0 899.3 2.6 60
2019-06-07 10:00:00 7.1 33 Este 49 Sudeste 0 898.3 2.6 67
2019-06-07 09:00:00 6.1 31 Este 46 Este 0.1 897.1 2.5 74
2019-06-07 08:00:00 5.6 20 Este 42 Este 0 896.7 2.9 78
2019-06-07 07:00:00 4.6 6 Este 31 Este 0 895.7 2.4 82
2019-06-07 06:00:00 4.6 12 Sudeste 35 Sudeste 0 894.6 1.7 83
2019-06-07 05:00:00 4.9 19 Este 33 Este 0 893.8 1.6 83
2019-06-07 04:00:00 5.2 11 Sudeste 26 Este 0 893.3 1.4 81
2019-06-07 03:00:00 5.4 14 Sudeste 24 Este 0 892.9 1.3 81
2019-06-07 02:00:00 5.9 14 Este 31 Este 0 892.2 1.3 75
2019-06-07 01:00:00 6.4 9 Nordeste 20 Sudeste 0 891.9 1.7 72
2019-06-07 00:00:00 7.3 6 Este 20 Este 0 891.6 2 74
2019-06-06 23:00:00 6.2 6 Sudeste 32 Este 0 890.9 1.7 73
2019-06-06 22:00:00 8.2 25 Este 44 Nordeste 0 890.2 1.1 66
2019-06-06 21:00:00 9.7 18 Este 34 Este 1 889.6 -0.4 81
2019-06-06 20:00:00 9.5 17 Nordeste 69 Norte 2.9 889.2 -0.7 97
2019-06-06 19:00:00 9.6 22 Norte 63 Norte 2.9 889.1 -2.3 94
2019-06-06 18:00:00 10.4 13 Nordeste 62 Norte 0.5 890 -2.2 88
2019-06-06 17:00:00 12.8 33 Nordeste 71 Nordeste 0 889.9 -3 59
2019-06-06 16:00:00 12.5 18 Norte 45 Norte 0 891.4 -2.6 54
2019-06-06 15:00:00 12 25 Noroeste 43 Noroeste 0 892.2 -2.4 52
2019-06-06 14:00:00 12.5 17 Noroeste 38 Norte 0 892.9 -2.2 51
2019-06-06 13:00:00 11.5 21 Noroeste 38 Noroeste 0 894 -2 53
2019-06-06 12:00:00 10.3 23 Norte 44 Noroeste 0 894.6 -2 60
2019-06-06 11:00:00 9.3 19 Oeste 32 Noroeste 0 895.1 -1.9 64
2019-06-06 10:00:00 8.1 11 Noroeste 22 Oeste 0 896 -1.5 73
2019-06-06 09:00:00 5.5 8 Oeste 15 Oeste 0 896.6 -1.2 83
2019-06-06 08:00:00 3.8 3 Noroeste 7 Noroeste 0 897 -0.7 91
2019-06-06 07:00:00 2.3 2 Sudoeste 4 Sudoeste 0 897.5 -0.9 93
2019-06-06 06:00:00 0.8 3 Sur 5 Sur 0 897.8 -0.9 92
2019-06-06 05:00:00 0.8 0 Calma 6 Noroeste 0 897.7 -1.2 88
2019-06-06 04:00:00 2.1 0 Calma 11 Este 0 898.4 -0.8 84
2019-06-06 03:00:00 2.9 3 Este 9 Este 0 898.7 -0.5 79
2019-06-06 02:00:00 4.9 3 Nordeste 13 Este 0 898.9 0 73
2019-06-06 01:00:00 5.8 5 Sudeste 16 Sur 0 899.2 0.5 76
2019-06-06 00:00:00 7.2 6 Sur 26 Este 0 899.2 0.4 68
2019-06-05 23:00:00 7.9 13 Este 25 Este 0 898.9 0.6 66
2019-06-05 22:00:00 8.1 12 Este 27 Este 0 898.7 0.3 66
2019-06-05 21:00:00 8.1 15 Sudeste 39 Sudeste 0 898.8 0.5 67
2019-06-05 20:00:00 10.8 20 Este 39 Este 0 898.3 0.1 48
2019-06-05 19:00:00 10.8 21 Este 35 Este 0 898.4 0.3 54
2019-06-05 18:00:00 11.2 19 Este 40 Este 0 898.3 -0.1 52
2019-06-05 17:00:00 12.6 27 Este 42 Este 0 898.2 0 40
2019-06-05 16:00:00 13.9 26 Este 40 Este 0 898.1 -0.1 45
2019-06-05 15:00:00 13.2 24 Este 71 Sudeste 0 898.4 0.3 47
2019-06-05 14:00:00 13.1 22 Este 71 Este 0 898.2 0.6 42
2019-06-05 13:00:00 11.4 24 Este 40 Este 0 898.2 1.1 54
2019-06-05 12:00:00 9.9 19 Este 45 Este 0 898.1 1.4 62
2019-06-05 11:00:00 10 28 Este 71 Este 0 897.6 1.4 60
2019-06-05 10:00:00 8.9 18 Este 45 Este 0 897.1 1.1 65
2019-06-05 09:00:00 7.7 22 Este 41 Este 0 896.7 0.9 72
2019-06-05 08:00:00 6.5 13 Este 23 Este 0 896.2 0.5 75
2019-06-05 07:00:00 6.2 6 Este 18 Este 0 896 0.5 78
2019-06-05 06:00:00 6.8 7 Este 25 Este 0 895.8 0.1 77
2019-06-05 05:00:00 6.7 14 Este 29 Este 0 895.7 -0.2 78
2019-06-05 04:00:00 6.2 20 Este 72 Este 0 895.5 -0.4 80
2019-06-05 03:00:00 7 23 Este 69 Este 0 895.7 -0.4 82
2019-06-05 02:00:00 7.3 24 Este 35 Este 0 895.9 -0.2 84
2019-06-05 01:00:00 7.6 22 Este 70 Sudeste 0 895.9 0.1 79
2019-06-05 00:00:00 8.1 23 Este 64 Este 0 896.1 0.6 79
2019-06-04 23:00:00 8.9 25 Este 36 Este 0 896.1 0.7 77
2019-06-04 22:00:00 10.7 15 Sudeste 28 Este 0 895.8 0.2 70
2019-06-04 21:00:00 14.2 19 Este 28 Este 0 895.5 -0.5 46
2019-06-04 20:00:00 15.3 22 Este 34 Este 0 895.4 -0.7 41
2019-06-04 19:00:00 15.3 24 Este 39 Este 0 895.6 -0.4 42
2019-06-04 18:00:00 16 23 Este 69 Este 0.1 896 0.3 45
2019-06-04 17:00:00 14.8 29 Este 71 Este 0 896.1 0.5 56
2019-06-04 16:00:00 14.9 26 Este 39 Este 0.3 896 0.1 77
2019-06-04 15:00:00 14.9 22 Sudeste 44 Este 0 895.7 -0.2 61
2019-06-04 14:00:00 18.6 12 Sudeste 28 Sudeste 0 895.6 -0.3 54
2019-06-04 13:00:00 18 16 Sudeste 35 Este 0 895.9 -0.3 51
2019-06-04 12:00:00 17.9 4 Oeste 18 Oeste 0 895.9 -0.2 52
2019-06-04 11:00:00 17.2 9 Noroeste 19 Noroeste 0 895.9 0.4 56
2019-06-04 10:00:00 15 10 Noroeste 19 Nordeste 0 896.2 0.6 68
2019-06-04 09:00:00 12.5 12 Este 22 Sudeste 0 896.1 0.5 79
2019-06-04 08:00:00 9.2 0 Calma 14 Sur 0 895.5 -0.1 97
2019-06-04 07:00:00 7 4 Este 9 Sur 0 895.6 -0.6 97
2019-06-04 06:00:00 8.6 0 Calma 10 Noroeste 0 895.6 -1 95
2019-06-04 05:00:00 9.2 5 Oeste 12 Este 0 895.6 -1.4 92
2019-06-04 04:00:00 10 7 Este 12 Este 0 896.2 -1.5 93
2019-06-04 03:00:00 9.9 3 Este 7 Sudeste 0 896.6 -1.6 92
2019-06-04 02:00:00 10.7 3 Este 7 Este 0 897 -1.5 91
2019-06-04 01:00:00 12.2 5 Nordeste 8 Este 0 897.7 -1 87
2019-06-04 00:00:00 14.7 0 Calma 17 Sudeste 0 898.2 -0.6 81
2019-06-03 23:00:00 16.1 9 Sudeste 21 Sudeste 0 898.5 -0.1 81
2019-06-03 22:00:00 18.4 8 Sudeste 22 Sudeste 0 898.7 0.1 65
2019-06-03 21:00:00 22.9 7 Norte 24 Nordeste 0 898.8 0.2 37
2019-06-03 20:00:00 23.7 14 Nordeste 29 Nordeste 0 898.6 -0.3 39
2019-06-03 19:00:00 24.8 16 Nordeste 30 Nordeste 0 898.6 -0.4 41
2019-06-03 18:00:00 26 15 Nordeste 30 Nordeste 0 898.6 -1.2 43
2019-06-03 17:00:00 24.9 5 Este 30 Oeste 0 898.9 -1.8 47
2019-06-03 16:00:00 24.6 5 Nordeste 37 Noroeste 0 899 -2.3 43
2019-06-03 15:00:00 26.1 11 Noroeste 28 Noroeste 0 899.8 -1.8 42
2019-06-03 14:00:00 24.8 10 Noroeste 28 Noroeste 0 900.7 -1.3 42
2019-06-03 13:00:00 24.5 6 Oeste 22 Oeste 0 901.3 -0.9 45
2019-06-03 12:00:00 22.5 7 Noroeste 18 Oeste 0 901.6 -0.6 46
2019-06-03 11:00:00 21.2 5 Sudoeste 11 Sudoeste 0 902 0.1 48
2019-06-03 10:00:00 19.2 0 Calma 12 Sur 0 902.2 0.5 53
2019-06-03 09:00:00 17.3 5 Sur 11 Sur 0 902.2 0.5 58
2019-06-03 08:00:00 14.2 0 Calma 4 Sur 0 901.9 0.3 66
2019-06-03 07:00:00 13.5 6 Sudeste 10 Sur 0 901.7 -0.1 64
2019-06-03 06:00:00 13.3 2 Este 11 Sudeste 0 901.7 -0.4 62
2019-06-03 05:00:00 14.4 3 Sudeste 9 Norte 0 901.6 -0.2 58
2019-06-03 04:00:00 16.3 0 Calma 12 Sur 0 901.8 -0.7 52
2019-06-03 03:00:00 17.5 6 Nordeste 20 Sudeste 0 902.1 -0.5 49
2019-06-03 02:00:00 17.1 8 Sudeste 24 Sudeste 0 901.8 -0.9 52
2019-06-03 01:00:00 18.1 10 Este 23 Sudeste 0 902.5 0 49
2019-06-03 00:00:00 17.9 5 Este 12 Este 0 902.6 0.1 49
2019-06-02 23:00:00 19.1 9 Este 18 Sudeste 0 902.7 0.2 47
2019-06-02 22:00:00 20.2 11 Sudeste 19 Este 0 902.5 0.2 45
2019-06-02 21:00:00 21.7 10 Sudeste 22 Sudeste 0 902.5 0 40
2019-06-02 20:00:00 23.2 12 Este 25 Este 0 902.5 0.2 37
2019-06-02 19:00:00 23.9 14 Sudeste 31 Sudeste 0 902.3 0.1 37
2019-06-02 18:00:00 24.7 18 Sudeste 31 Sudeste 0 902.5 0 35
2019-06-02 17:00:00 27.1 15 Este 30 Nordeste 0 902.3 -0.8 29
2019-06-02 16:00:00 26.4 13 Este 33 Nordeste 0 902.2 -1.4 27
2019-06-02 15:00:00 28.7 4 Sur 21 Sudeste 0 902.5 -1.2 27
2019-06-02 14:00:00 26.3 9 Sudeste 26 Sur 0 903.1 -0.7 29
2019-06-02 13:00:00 26.1 3 Sudeste 18 Oeste 0 903.6 -0.2 28
2019-06-02 12:00:00 25.3 3 Sudoeste 19 Sur 0 903.7 0.1 31
2019-06-02 11:00:00 24.7 0 Calma 14 Sudoeste 0 903.8 0.3 30
2019-06-02 10:00:00 23.5 5 Sur 12 Sur 0 903.8 0.2 35
2019-06-02 09:00:00 20.8 3 Sudoeste 8 Sudoeste 0 903.6 0.3 43
2019-06-02 08:00:00 12.4 4 Este 6 Este 0 903.5 0.2 61
2019-06-02 07:00:00 10.3 4 Este 10 Este 0 903.6 0.2 60
2019-06-02 06:00:00 11.4 2 Este 9 Sudeste 0 903.3 -0.2 55
2019-06-02 05:00:00 11.9 2 Sudeste 8 Noroeste 0 903.3 -0.8 51
2019-06-02 04:00:00 15.1 4 Noroeste 17 Este 0 903.4 -0.8 42
2019-06-02 03:00:00 15.6 7 Este 17 Este 0 903.5 -1.3 44
2019-06-02 02:00:00 16 9 Este 14 Este 0 904.1 -0.5 46
2019-06-02 01:00:00 17.3 9 Este 18 Sur 0 904.2 0.2 43
2019-06-02 00:00:00 19.6 9 Sur 17 Sudeste 0 904.8 1.2 40
2019-06-01 23:00:00 20.4 11 Este 19 Este 0 904.6 1.2 39
2019-06-01 22:00:00 22.8 15 Este 30 Este 0 904 0.9 37
2019-06-01 21:00:00 26.1 24 Este 33 Este 0 903.6 0.3 33
2019-06-01 20:00:00 27.9 19 Este 32 Sudeste 0 903.4 -0.4 32
2019-06-01 19:00:00 29.3 13 Sudeste 24 Este 0 903.1 -1.2 30
2019-06-01 18:00:00 29.9 3 Nordeste 19 Este 0 903.3 -1.4 30
2019-06-01 17:00:00 29.7 11 Sudeste 22 Sudeste 0 903.8 -1.4 29
2019-06-01 16:00:00 28.4 14 Este 26 Sudeste 0 904.3 -1.4 30
2019-06-01 15:00:00 27.7 8 Sur 22 Noroeste 0 904.7 -1.3 31
2019-06-01 14:00:00 29.3 9 Noroeste 20 Nordeste 0 905.2 -1.1 31
2019-06-01 13:00:00 28 4 Oeste 21 Oeste 0 905.7 -0.6 33
2019-06-01 12:00:00 26.4 5 Sur 14 Sudoeste 0 906 -0.2 36
2019-06-01 11:00:00 24.1 4 Sur 12 Sudoeste 0 906.3 -0.1 39
2019-06-01 10:00:00 22.7 5 Sur 10 Sudoeste 0 906.3 0.4 42
2019-06-01 09:00:00 19.9 0 Calma 4 Este 0 906.2 0.4 50
2019-06-01 08:00:00 14.8 3 Este 8 Este 0 906.4 0.2 69
2019-06-01 07:00:00 11.2 5 Este 8 Este 0 905.9 -0.4 71
2019-06-01 06:00:00 12.1 5 Este 10 Este 0 905.8 -0.8 65
2019-06-01 05:00:00 13.2 3 Sudeste 8 Sudeste 0 906.2 -0.4 61
2019-06-01 04:00:00 12.2 4 Este 8 Este 0 906.3 -0.4 61
2019-06-01 03:00:00 14 5 Este 8 Este 0 906.6 -0.2 52
2019-06-01 02:00:00 16.6 6 Este 10 Este 0 906.6 0 45
2019-06-01 01:00:00 16.8 2 Sur 15 Este 0 906.7 0.7 40
2019-06-01 00:00:00 17.3 6 Este 10 Este 0 906.8 0.9 40
2019-05-31 23:00:00 17.2 7 Este 11 Este 0 906.6 1 37
2019-05-31 22:00:00 21 2 Este 13 Oeste 0 906 0.2 28
2019-05-31 21:00:00 27.2 10 Oeste 19 Oeste 0 905.9 0 24
2019-05-31 20:00:00 28.5 9 Noroeste 21 Oeste 0 905.6 -0.9 24
2019-05-31 19:00:00 29.7 8 Sudoeste 23 Oeste 0 905.8 -1.1 24
2019-05-31 18:00:00 29.8 10 Oeste 24 Sur 0 905.9 -1.6 24
2019-05-31 17:00:00 29.2 7 Sudoeste 21 Oeste 0 906.5 -1.5 25
2019-05-31 16:00:00 28.3 10 Sudeste 26 Sudeste 0 906.9 -1.4 27
2019-05-31 15:00:00 28.2 5 Sudoeste 18 Este 0 907.5 -1.1 28
2019-05-31 14:00:00 27.1 4 Sudoeste 19 Sudoeste 0 908 -0.9 29
2019-05-31 13:00:00 26.2 0 Calma 14 Sudoeste 0 908.3 -0.9 30
2019-05-31 12:00:00 25.1 5 Oeste 14 Oeste 0 908.6 -0.6 34
2019-05-31 11:00:00 23.6 5 Oeste 10 Oeste 0 908.9 -0.3 38
2019-05-31 10:00:00 21.6 4 Oeste 8 Oeste 0 909.2 0.1 46
2019-05-31 09:00:00 19.2 0 Calma 3 Sur 0 909.2 0 59
2019-05-31 08:00:00 13.8 0 Calma 7 Este 0 909.2 -0.1 80
2019-05-31 07:00:00 9.9 4 Este 8 Este 0 909.1 -0.4 88
2019-05-31 06:00:00 10.6 3 Este 7 Este 0 909.2 -0.9 85
2019-05-31 05:00:00 11.5 5 Este 10 Este 0 909.3 -0.9 82
2019-05-31 04:00:00 11.7 8 Este 11 Este 0 909.5 -0.8 80
2019-05-31 03:00:00 12.4 3 Este 5 Sudeste 0 910.1 -0.1 72
2019-05-31 02:00:00 14.2 3 Este 9 Este 0 910.2 0.7 66
2019-05-31 01:00:00 16 2 Sudeste 14 Sur 0 910.3 1.7 53
2019-05-31 00:00:00 18.3 9 Sur 14 Sur 0 910.2 2.1 43
2019-05-30 23:00:00 20.7 8 Sur 15 Sur 0 909.5 1.7 38
2019-05-30 22:00:00 22.6 3 Sudeste 13 Oeste 0 908.6 0.5 35
2019-05-30 21:00:00 25.3 8 Oeste 22 Oeste 0 908.1 -0.2 30
2019-05-30 20:00:00 27.3 6 Sudoeste 14 Sur 0 907.8 -1 29
2019-05-30 19:00:00 26.5 3 Oeste 25 Norte 0 908.1 -1.1 30
2019-05-30 18:00:00 28.2 9 Oeste 21 Noroeste 0 908.3 -1.3 28
2019-05-30 17:00:00 26.9 8 Norte 30 Oeste 0 908.8 -1.2 28
2019-05-30 16:00:00 27.1 10 Oeste 48 Oeste 0 909.2 -1 29
2019-05-30 15:00:00 26.1 11 Noroeste 22 Oeste 0 909.6 -0.8 30
2019-05-30 14:00:00 25.7 8 Sudoeste 21 Sudoeste 0 910 -0.7 33
2019-05-30 13:00:00 23.8 9 Noroeste 19 Noroeste 0 910.2 -0.6 34
2019-05-30 12:00:00 21.9 4 Oeste 13 Noroeste 0 910.4 -0.2 40
2019-05-30 11:00:00 19 4 Noroeste 15 Noroeste 0 910.7 0.2 49
2019-05-30 10:00:00 16.7 8 Noroeste 15 Noroeste 0 910.8 0.6 54
2019-05-30 09:00:00 13.9 3 Noroeste 6 Noroeste 0 910.6 0.5 67
2019-05-30 08:00:00 9.3 0 Calma 3 Este 0 910.5 0.4 88
2019-05-30 07:00:00 5.4 0 Calma 7 Este 0 910.2 0 91
2019-05-30 06:00:00 6 0 Calma 5 Este 0 910.1 -0.4 89
2019-05-30 05:00:00 6.9 3 Sudeste 10 Este 0 910.1 -0.7 85
2019-05-30 04:00:00 7.6 6 Este 10 Este 0 910.2 -0.7 82
2019-05-30 03:00:00 8.8 5 Este 10 Este 0 910.5 -0.4 79
2019-05-30 02:00:00 9.4 4 Este 6 Este 0 910.8 0.7 74
2019-05-30 01:00:00 11.4 0 Calma 6 Este 0 910.9 2 67
2019-05-30 00:00:00 13.8 3 Este 16 Sudoeste 0 910.9 2.7 54
2019-05-29 23:00:00 17.2 8 Sudoeste 14 Sur 0 910.1 2.2 39
2019-05-29 22:00:00 19.4 5 Sur 14 Sudoeste 0 908.9 1 35
2019-05-29 21:00:00 23 8 Oeste 17 Sudoeste 0 908.2 0.3 34
2019-05-29 20:00:00 24.9 9 Sudoeste 18 Sudoeste 0 907.9 -0.3 33
2019-05-29 19:00:00 24.6 12 Sudoeste 22 Sudoeste 0 907.9 -0.4 34
2019-05-29 18:00:00 24.3 3 Sudoeste 20 Sudoeste 0 907.9 -0.9 35
2019-05-29 17:00:00 23.5 11 Oeste 26 Noroeste 0 908.2 -0.7 36
2019-05-29 16:00:00 22.8 8 Noroeste 23 Oeste 0 908.3 -0.7 36
2019-05-29 15:00:00 22.2 10 Sudoeste 22 Sudoeste 0 908.8 -0.1 37
2019-05-29 14:00:00 20.5 7 Sur 18 Sudoeste 0 908.9 0 39
2019-05-29 13:00:00 19 5 Sudoeste 21 Norte 0 909 0.1 42
2019-05-29 12:00:00 17.6 4 Noroeste 17 Oeste 0 908.9 0.1 46
2019-05-29 11:00:00 15.4 6 Noroeste 14 Oeste 0 908.9 0.4 52
2019-05-29 10:00:00 13.2 5 Noroeste 12 Noroeste 0 908.9 0.8 58
2019-05-29 09:00:00 10.9 5 Noroeste 13 Noroeste 0 908.8 0.7 68
2019-05-29 08:00:00 7.6 0 Calma 9 Este 0 908.5 0.7 88
2019-05-29 07:00:00 3.7 8 Este 11 Este 0 908.1 0.2 94
2019-05-29 06:00:00 3.8 3 Sudeste 10 Este 0 908.1 0.4 91
2019-05-29 05:00:00 5.1 8 Este 11 Este 0 907.8 -0.3 90
2019-05-29 04:00:00 5.6 7 Este 12 Este 0 907.9 0 88
2019-05-29 03:00:00 4.8 7 Este 10 Este 0 907.7 0.2 86
2019-05-29 02:00:00 6.3 3 Este 14 Sur 0 908.1 1 79
2019-05-29 01:00:00 7.7 8 Sudeste 12 Sudeste 0 907.9 1.5 76
2019-05-29 00:00:00 9.1 5 Sur 17 Sur 0 907.5 2 67
2019-05-28 23:00:00 11 9 Sur 20 Sur 0 907.1 2.4 60
2019-05-28 22:00:00 12.7 9 Sudoeste 22 Sudoeste 0 906.4 2.4 52
2019-05-28 21:00:00 16.4 14 Sur 30 Sur 0 905.5 1.4 42
2019-05-28 20:00:00 19.6 12 Sur 27 Sudeste 0 904.7 0.7 35
2019-05-28 19:00:00 20.7 13 Sudeste 27 Sudeste 0 904 -0.4 34
2019-05-28 18:00:00 20.9 13 Este 30 Este 0 904.1 0 33
2019-05-28 17:00:00 20.7 14 Este 31 Este 0 904 -0.1 34
2019-05-28 16:00:00 20.3 10 Sudeste 33 Sudeste 0 904.4 0.4 34
2019-05-28 15:00:00 20.2 13 Sudeste 29 Sudeste 0 904.1 0 33
2019-05-28 14:00:00 20.3 13 Sudeste 27 Sur 0 904.1 0.1 34
2019-05-28 13:00:00 19.1 8 Sur 22 Sur 0 904 0 37
2019-05-28 12:00:00 17.2 5 Sudoeste 16 Sudoeste 0 904.1 0.3 41
2019-05-28 11:00:00 15.2 5 Oeste 11 Oeste 0 904 0.7 44
2019-05-28 10:00:00 12.7 4 Noroeste 10 Noroeste 0 904 1.1 53
2019-05-28 09:00:00 10.4 4 Oeste 7 Oeste 0 903.8 1.4 65
2019-05-28 08:00:00 5.4 0 Calma 5 Sudeste 0 903.3 1 86
2019-05-28 07:00:00 2.4 3 Sudeste 10 Este 0 902.9 0.5 88
2019-05-28 06:00:00 2.9 7 Este 9 Este 0 902.4 0.3 85
2019-05-28 05:00:00 4.3 7 Este 12 Este 0 902.3 0.1 82
2019-05-28 04:00:00 4.2 5 Este 7 Este 0 902.4 0.3 79
2019-05-28 03:00:00 5 6 Este 8 Este 0 902.1 -0.1 68
2019-05-28 02:00:00 7.6 0 Calma 10 Este 0 902.2 0.6 55
2019-05-28 01:00:00 10.3 6 Sudeste 19 Sudeste 0 902.1 1.3 49
2019-05-28 00:00:00 12.5 12 Sudeste 24 Sudeste 0 902.2 1.5 44
2019-05-27 23:00:00 13.8 13 Sudeste 25 Este 0 901.6 1.3 54
2019-05-27 22:00:00 14.5 17 Este 35 Este 0 900.8 0.6 47
2019-05-27 21:00:00 17.1 17 Este 41 Sudeste 0 900.7 0.6 45
2019-05-27 20:00:00 19.8 18 Sudeste 35 Este 0 900.3 -0.1 43
2019-05-27 19:00:00 21.2 18 Sudeste 31 Sudeste 0 900.2 -0.5 39
2019-05-27 18:00:00 22.8 14 Sudeste 26 Sudeste 0 900.1 -1 38
2019-05-27 17:00:00 22.6 11 Sudeste 31 Sudeste 0 900.4 -1.3 40
2019-05-27 16:00:00 22.3 9 Sudeste 30 Sudeste 0 900.7 -1.3 42
2019-05-27 15:00:00 22.5 12 Sudeste 25 Sudeste 0 901.1 -0.8 42
2019-05-27 14:00:00 21.2 10 Este 28 Este 0 901.7 -0.3 44
2019-05-27 13:00:00 20.5 15 Sudeste 29 Sudeste 0 902 -0.3 45
2019-05-27 12:00:00 19.4 14 Sudeste 26 Sudeste 0 901.9 -0.1 48
2019-05-27 11:00:00 17.9 15 Este 32 Este 0 902 -0.2 54
2019-05-27 10:00:00 16.3 21 Sudeste 33 Sudeste 0 902.3 0.3 59
2019-05-27 09:00:00 15.6 18 Este 30 Este 0 902 -0.1 63
2019-05-27 08:00:00 14 0 Calma 14 Nordeste 0 902.2 0.1 66
2019-05-27 07:00:00 12 10 Este 17 Este 0 902 -0.5 70
2019-05-27 06:00:00 10.5 9 Nordeste 13 Nordeste 0 902.1 -1.1 75
2019-05-27 05:00:00 10.7 2 Este 17 Este 0 902.1 -1.1 69
2019-05-27 04:00:00 13.9 7 Este 15 Sudeste 0 902.5 -1.2 65
2019-05-27 03:00:00 12.4 0 Calma 16 Este 0 903.2 -0.6 64
2019-05-27 02:00:00 14.7 7 Este 21 Este 0 903.2 -0.3 58
2019-05-27 01:00:00 16.1 7 Nordeste 14 Noroeste 0 903.7 0.5 55
2019-05-27 00:00:00 16.6 6 Sudeste 21 Sudeste 0 903.8 0.6 55
2019-05-26 23:00:00 18 9 Este 32 Este 0 903.5 0.4 51
2019-05-26 22:00:00 19.1 17 Este 37 Sudeste 0 903.2 0 44
2019-05-26 21:00:00 21.7 20 Este 34 Este 0 903.2 -0.4 36
2019-05-26 20:00:00 24 20 Este 35 Sudeste 0 903.1 -0.9 31
2019-05-26 19:00:00 25.2 17 Este 34 Este 0 903.2 -1 31
2019-05-26 18:00:00 25.5 17 Este 33 Este 0 903.6 -0.9 30
2019-05-26 17:00:00 25.5 17 Sudeste 33 Este 0 904 -1.2 31
2019-05-26 16:00:00 25 15 Este 32 Sudeste 0 904.2 -1.2 31
2019-05-26 15:00:00 24.6 7 Sudeste 26 Sudeste 0 904.5 -1.2 33
2019-05-26 14:00:00 23.5 13 Sudeste 31 Sudeste 0 905.2 -1 34
2019-05-26 13:00:00 22.8 0 Calma 16 Sudeste 0 905.4 -1 37
2019-05-26 12:00:00 19.4 3 Norte 11 Sudoeste 0 905.7 -0.8 44
2019-05-26 11:00:00 16.9 4 Sur 12 Sudoeste 0 906.2 -0.5 52
2019-05-26 10:00:00 14.1 4 Oeste 12 Oeste 0 906.4 0 62
2019-05-26 09:00:00 10.8 4 Oeste 7 Noroeste 0 906.5 0.2 75
2019-05-26 08:00:00 7.4 2 Sudoeste 6 Sudoeste 0 906.7 0.2 91
2019-05-26 07:00:00 3.3 2 Sur 5 Sudeste 0 906.4 -0.2 94
2019-05-26 06:00:00 3.4 0 Calma 5 Este 0 906.3 -0.4 94
2019-05-26 05:00:00 4.3 0 Calma 5 Este 0 906.5 -0.4 91
2019-05-26 04:00:00 5.1 0 Calma 5 Este 0 906.6 -0.6 89
2019-05-26 03:00:00 6.3 0 Calma 6 Este 0 906.7 -0.6 85
2019-05-26 02:00:00 7.5 4 Este 10 Este 0 906.9 0.3 83
2019-05-26 01:00:00 8.4 3 Este 7 Este 0 907.2 1 77
2019-05-26 00:00:00 12.6 5 Oeste 14 Oeste 0 907.3 1.8 61
2019-05-25 23:00:00 14.6 9 Sur 15 Sur 0 906.6 1.3 55
2019-05-25 22:00:00 16.7 11 Sur 19 Sudoeste 0 906.2 1.1 47
2019-05-25 21:00:00 20.1 13 Sudoeste 23 Sudoeste 0 905.5 0.5 40
2019-05-25 20:00:00 21.7 10 Sur 24 Sudoeste 0 905.3 0 38
2019-05-25 19:00:00 20.8 13 Sur 27 Sudoeste 0 905.1 -0.4 36
2019-05-25 18:00:00 21.6 12 Sudoeste 29 Sudoeste 0 905 -0.8 33
2019-05-25 17:00:00 23.1 7 Sur 26 Sur 0 905.3 -0.9 30
2019-05-25 16:00:00 21.8 6 Sudoeste 24 Sudoeste 0 905.5 -0.9 30
2019-05-25 15:00:00 19.7 8 Sur 24 Sur 0 905.8 -0.9 31
2019-05-25 14:00:00 19.1 4 Sudoeste 22 Sudoeste 0 906.2 -0.6 35
2019-05-25 13:00:00 17.9 8 Sudoeste 22 Sudoeste 0 906.4 -0.3 37
2019-05-25 12:00:00 16.2 0 Calma 21 Sudoeste 0 906.7 0.6 39
2019-05-25 11:00:00 15.1 4 Oeste 16 Oeste 0 906.8 1.1 41
2019-05-25 10:00:00 13.2 5 Oeste 16 Oeste 0 906.7 1.2 53
2019-05-25 09:00:00 12.6 9 Sudoeste 18 Sur 0 906.1 0.7 52
2019-05-25 08:00:00 8.1 4 Este 10 Sudeste 0 905.7 0.4 78
2019-05-25 07:00:00 4.4 7 Este 10 Este 0 905.5 -0.3 90
2019-05-25 06:00:00 3.9 5 Sudeste 8 Este 0 905.4 -0.6 93
2019-05-25 05:00:00 3.2 5 Este 8 Este 0 905.3 -0.9 92
2019-05-25 04:00:00 3.5 5 Este 9 Sudeste 0 905.8 -0.3 90
2019-05-25 03:00:00 4.3 5 Este 8 Este 0 906 0.1 85
2019-05-25 02:00:00 6.2 5 Este 10 Este 0 906.2 0.7 78
2019-05-25 01:00:00 8.3 4 Sur 18 Sur 0 906.1 1.5 70
2019-05-25 00:00:00 9.5 9 Sur 16 Sudeste 0 905.9 1.8 67
2019-05-24 23:00:00 10.5 12 Sudeste 20 Sur 0 905.5 2.1 62
2019-05-24 22:00:00 11.8 10 Sur 30 Sudoeste 0 904.6 1.5 54
2019-05-24 21:00:00 14.6 20 Sudoeste 37 Sudoeste 0 904.1 1.2 46
2019-05-24 20:00:00 17.1 21 Sudoeste 39 Sudoeste 0 903.4 0.4 40
2019-05-24 19:00:00 20.3 5 Sur 28 Este 0 903.1 -0.1 36
2019-05-24 18:00:00 20.2 12 Sudeste 26 Sudeste 0 902.9 -0.7 35
2019-05-24 17:00:00 19.9 6 Este 35 Sur 0 903 -1 36
2019-05-24 16:00:00 19.5 12 Sudeste 35 Sudeste 0 903.2 -0.6 39
2019-05-24 15:00:00 18.2 12 Sudeste 28 Este 0 903.6 0.1 40
2019-05-24 14:00:00 17.4 13 Sudeste 27 Sudeste 0 904 0 42
2019-05-24 13:00:00 17.2 10 Sudoeste 22 Sudoeste 0 903.8 -0.2 42
2019-05-24 12:00:00 14.8 5 Sur 19 Sur 0 903.5 -0.2 43
2019-05-24 11:00:00 13.2 12 Sudeste 28 Sudeste 0 904 0.8 46
2019-05-24 10:00:00 12.1 14 Sudeste 28 Sudeste 0 904 1.2 48
2019-05-24 09:00:00 10.4 17 Sudeste 27 Sudeste 0 903.7 1.1 57
2019-05-24 08:00:00 9.4 13 Sudeste 24 Sudeste 0 903.2 0.9 56
2019-05-24 07:00:00 6.9 8 Este 22 Este 0 902.8 0.2 60
2019-05-24 06:00:00 7.5 12 Sudeste 22 Este 0 902.6 -0.4 63
2019-05-24 05:00:00 7.7 11 Este 22 Sudeste 0 902.3 -0.8 67
2019-05-24 04:00:00 8.1 12 Sudeste 19 Sudeste 0 902.6 -0.6 77
2019-05-24 03:00:00 8.7 4 Este 20 Este 0 903 0.4 75
2019-05-24 02:00:00 9.9 6 Sudeste 19 Este 0 903.1 0.3 71
2019-05-24 01:00:00 10.7 4 Este 24 Este 0 903.2 0.9 68
2019-05-24 00:00:00 10.8 10 Este 36 Este 0 902.6 0.4 66
2019-05-23 23:00:00 11.6 24 Este 35 Este 0 902.8 1 66
2019-05-23 22:00:00 12.7 20 Este 34 Este 0 902.3 1 60
2019-05-23 21:00:00 15 18 Este 45 Sudeste 0 902.2 0.9 50
2019-05-23 20:00:00 16.9 23 Sudeste 70 Sudeste 0 901.8 0.5 48
2019-05-23 19:00:00 18 29 Sudeste 71 Sudeste 0 901.3 -0.4 48
2019-05-23 18:00:00 20.3 23 Sudeste 68 Sudeste 0 901.3 -0.6 45
2019-05-23 17:00:00 20.9 17 Sudeste 37 Sur 0 901.3 -1.1 40
2019-05-23 16:00:00 20.3 17 Sur 28 Sur 0 901.7 -1.1 39
2019-05-23 15:00:00 20.2 10 Sur 24 Sur 0 901.9 -1.1 40
2019-05-23 14:00:00 19.4 17 Sur 31 Sur 0 902.4 -0.8 45
2019-05-23 13:00:00 19.4 3 Este 20 Nordeste 0 902.8 -0.1 48
2019-05-23 12:00:00 17.6 6 Sur 16 Sudeste 0 903 0.3 59
2019-05-23 11:00:00 17.3 2 Sudoeste 8 Noroeste 0 903.2 0.8 57
2019-05-23 10:00:00 16 2 Norte 12 Este 0 902.9 0.5 63
2019-05-23 09:00:00 13.7 12 Sudeste 15 Este 0 902.7 0.4 75
2019-05-23 08:00:00 11.7 4 Este 10 Sudeste 0 902.4 0.1 85
2019-05-23 07:00:00 9.4 6 Sudeste 10 Sudeste 0 902.4 0.1 85
2019-05-23 06:00:00 11.6 3 Noroeste 9 Sur 0 902.3 -0.4 80
2019-05-23 05:00:00 12.1 2 Sur 8 Sudeste 0 902.3 -0.4 79
2019-05-23 04:00:00 11.1 0 Calma 9 Este 0 902.3 -0.6 82
2019-05-23 03:00:00 12.9 5 Noroeste 19 Sudeste 0 902.7 -0.2 75
2019-05-23 02:00:00 14.7 13 Sudeste 28 Sudeste 0 902.7 0.1 70
2019-05-23 01:00:00 15 17 Sudeste 24 Sudeste 0 902.9 0.9 67
2019-05-23 00:00:00 15.7 16 Sudeste 28 Sudeste 0 902.9 1.1 65
2019-05-22 23:00:00 15.9 10 Sudeste 17 Sudeste 0 902.6 1 57
2019-05-22 22:00:00 18.3 13 Sudeste 24 Sudeste 0 902 0.6 43
2019-05-22 21:00:00 20.9 14 Sudeste 23 Sudeste 0 901.8 0 38
2019-05-22 20:00:00 21 10 Sudeste 19 Sur 0 901.6 -0.4 37
2019-05-22 19:00:00 22.9 7 Sudeste 14 Sudeste 0 901.4 -0.8 33
2019-05-22 18:00:00 22.9 9 Sudeste 18 Sudeste 0 901.8 -0.9 33
2019-05-22 17:00:00 23.4 3 Sur 17 Noroeste 0 902 -1 33
2019-05-22 16:00:00 22.8 7 Norte 23 Norte 0 902.2 -1.1 33
2019-05-22 15:00:00 22.6 6 Noroeste 17 Este 0 902.7 -0.9 33
2019-05-22 14:00:00 22.2 8 Norte 20 Noroeste 0 903 -0.6 33
2019-05-22 13:00:00 20.5 11 Norte 23 Noroeste 0 903.3 -0.3 33
2019-05-22 12:00:00 18.3 8 Noroeste 19 Oeste 0 903.6 0.3 34
2019-05-22 11:00:00 16.5 7 Norte 16 Noroeste 0 903.6 0.4 35
2019-05-22 10:00:00 14.9 6 Noroeste 13 Norte 0 903.6 0.4 40
2019-05-22 09:00:00 13 0 Calma 6 Noroeste 0 903.3 0 59
2019-05-22 08:00:00 8 4 Sudeste 8 Sudeste 0 903.2 -0.1 92
2019-05-22 07:00:00 4.9 7 Sudeste 10 Sudeste 0 903.2 -0.4 94
2019-05-22 06:00:00 5.8 3 Sudeste 10 Sudeste 0 903.3 -0.2 92
2019-05-22 05:00:00 5.9 6 Sudeste 9 Este 0 903.3 -0.3 92
2019-05-22 04:00:00 6.3 5 Sudeste 9 Sudeste 0 903.6 0.5 87
2019-05-22 03:00:00 8.1 3 Oeste 7 Sudeste 0 903.5 1.2 80
2019-05-22 02:00:00 10.5 4 Oeste 8 Oeste 0 903.6 1.6 70
2019-05-22 01:00:00 13 5 Oeste 24 Sudoeste 0 903.1 2 67
2019-05-22 00:00:00 13.5 12 Sudeste 18 Sudeste 0 902.3 1.4 68
2019-05-21 23:00:00 14.1 9 Sudeste 15 Sudeste 0 902 1.4 56
2019-05-21 22:00:00 16.2 3 Sur 5 Sudeste 0 901.1 0.5 47
2019-05-21 21:00:00 18.1 3 Sudeste 9 Sudoeste 0 900.9 0.2 38
2019-05-21 20:00:00 20.7 2 Norte 14 Oeste 0 900.6 -0.3 33
2019-05-21 19:00:00 20.6 0 Calma 17 Nordeste 0 900.6 -0.4 33
2019-05-21 18:00:00 21.4 5 Noroeste 15 Noroeste 0 900.7 -0.5 33
2019-05-21 17:00:00 19.9 8 Nordeste 15 Nordeste 0 900.9 -0.3 33
2019-05-21 16:00:00 19.3 6 Este 26 Noroeste 0 901 -0.2 35
2019-05-21 15:00:00 19.8 5 Oeste 23 Oeste 0 901.2 -0.2 37
2019-05-21 14:00:00 17.7 5 Norte 24 Oeste 0 901.2 -0.2 40
2019-05-21 13:00:00 16.3 5 Noroeste 15 Noroeste 0 901.2 0 44
2019-05-21 12:00:00 16 4 Noroeste 14 Oeste 0 901.4 0.3 47
2019-05-21 11:00:00 15.1 6 Oeste 19 Noroeste 0 901.4 0.7 51
2019-05-21 10:00:00 13.7 5 Oeste 18 Noroeste 0 901.2 0.8 57
2019-05-21 09:00:00 11.3 5 Este 15 Sudeste 0 901.1 0.9 67
2019-05-21 08:00:00 8.2 11 Sudeste 14 Sudeste 0 900.7 0.5 82
2019-05-21 07:00:00 5.6 9 Sudeste 13 Este 0 900.4 0.2 85
2019-05-21 06:00:00 6.1 10 Sudeste 13 Sudeste 0 900.2 0 84
2019-05-21 05:00:00 6.5 7 Sudeste 9 Este 0 900.2 0.5 76
2019-05-21 04:00:00 9.6 3 Sudoeste 11 Sudoeste 0 900.2 0.9 63
2019-05-21 03:00:00 10.3 5 Sudoeste 22 Oeste 0 900.2 1 58
2019-05-21 02:00:00 10.8 6 Sudeste 20 Este 0 899.7 0.6 55
2019-05-21 01:00:00 11.6 8 Sudeste 19 Sudeste 0 899.3 1 49
2019-05-21 00:00:00 11.7 9 Sudeste 23 Sudeste 0 899.2 1.1 48